createdAt,value
2023-03-21T00:55:34.032Z,9.08
2023-03-21T00:58:03.034Z,9.14
2023-03-21T01:00:37.278Z,9.17
2023-03-21T01:03:23.327Z,9.16
2023-03-21T01:06:05.098Z,9.14
2023-03-21T01:08:57.801Z,9.12
2023-03-21T01:11:28.245Z,9.11
2023-03-21T01:14:14.822Z,9.08
2023-03-21T01:16:46.026Z,9.09
2023-03-21T01:19:37.966Z,9.15
2023-03-21T01:22:09.682Z,9.06
2023-03-21T01:24:50.237Z,9.14
2023-03-21T01:27:22.130Z,9.18
2023-03-21T01:29:49.312Z,9.19
2023-03-21T01:32:20.905Z,9.11
2023-03-21T01:34:47.633Z,9.14
2023-03-21T01:37:14.826Z,9.15
2023-03-21T01:39:47.953Z,9.15
2023-03-21T01:42:18.196Z,9.15
2023-03-21T01:45:29.783Z,9.08
2023-03-21T01:47:56.834Z,9.09
2023-03-21T01:50:37.074Z,9.06
2023-03-21T01:53:29.990Z,9.07
2023-03-21T01:56:11.171Z,9.00
2023-03-21T01:58:55.356Z,9.09
2023-03-21T02:02:01.767Z,9.10
2023-03-21T02:04:31.368Z,9.05
2023-03-21T02:07:25.772Z,9.09
2023-03-21T02:10:01.588Z,9.08
2023-03-21T02:12:34.767Z,9.06
2023-03-21T02:15:07.582Z,9.10
2023-03-21T02:18:36.867Z,9.18
2023-03-21T02:22:02.447Z,9.20
2023-03-21T02:25:21.209Z,9.20
2023-03-21T02:28:19.645Z,9.21
2023-03-21T02:30:56.185Z,9.23
2023-03-21T02:33:36.003Z,9.24
2023-03-21T02:36:22.470Z,9.20
2023-03-21T02:38:52.687Z,9.17
2023-03-21T02:41:25.382Z,9.20
2023-03-21T02:44:01.328Z,9.20
2023-03-21T02:46:51.092Z,9.19
2023-03-21T02:49:40.209Z,9.22
2023-03-21T02:52:18.811Z,9.21
2023-03-21T02:54:58.348Z,9.22
2023-03-21T02:57:42.183Z,9.23
2023-03-21T03:00:19.181Z,9.18
2023-03-21T03:03:08.344Z,9.22
2023-03-21T03:05:51.645Z,9.22
2023-03-21T03:08:41.323Z,9.21
2023-03-21T03:11:37.500Z,9.14
2023-03-21T03:14:35.760Z,9.20
2023-03-21T03:17:08.231Z,9.22
2023-03-21T03:19:55.072Z,9.20
2023-03-21T03:22:39.879Z,9.23
2023-03-21T03:25:23.131Z,9.25
2023-03-21T03:28:01.783Z,9.17
2023-03-21T03:30:48.674Z,9.24
2023-03-21T03:33:27.389Z,9.23
2023-03-21T03:36:05.102Z,9.18
2023-03-21T03:38:39.382Z,9.22
2023-03-21T03:41:14.794Z,9.22
2023-03-21T03:43:54.034Z,9.19
2023-03-21T03:46:33.665Z,9.22
2023-03-21T03:49:18.893Z,9.21
2023-03-21T03:52:01.691Z,9.18
2023-03-21T03:54:40.608Z,9.20
2023-03-21T03:57:08.845Z,9.26
2023-03-21T03:59:41.594Z,9.27
2023-03-21T04:02:33.089Z,9.26
2023-03-21T04:05:04.365Z,9.21
2023-03-21T04:07:31.828Z,9.35
2023-03-21T04:10:07.165Z,9.37
2023-03-21T04:12:42.562Z,9.39
2023-03-21T04:15:22.199Z,9.32
2023-03-21T04:17:56.673Z,9.42
2023-03-21T04:20:43.335Z,9.43
2023-03-21T04:23:13.371Z,9.44
2023-03-21T04:25:55.792Z,9.43
2023-03-21T04:28:26.416Z,9.43
2023-03-21T04:31:11.113Z,9.44
2023-03-21T04:33:55.987Z,9.43
2023-03-21T04:36:28.813Z,9.41
2023-03-21T04:39:01.669Z,9.41
2023-03-21T04:41:29.986Z,9.34
2023-03-21T04:43:57.267Z,9.34
2023-03-21T04:46:28.837Z,9.41
2023-03-21T04:49:03.454Z,9.41
2023-03-21T04:51:32.940Z,9.36
2023-03-21T04:54:02.622Z,9.33
2023-03-21T04:56:36.401Z,9.32
2023-03-21T04:59:09.860Z,9.30
2023-03-21T05:01:41.318Z,9.28
2023-03-21T05:04:16.769Z,9.17
2023-03-21T05:06:50.547Z,9.22
2023-03-21T05:09:17.288Z,9.23
2023-03-21T05:11:49.303Z,9.27
2023-03-21T05:14:29.564Z,9.30
2023-03-21T05:17:05.275Z,9.22
2023-03-21T05:19:40.765Z,9.22
2023-03-21T05:22:10.602Z,9.29
2023-03-21T05:24:42.522Z,9.29
2023-03-21T05:27:34.245Z,9.29
2023-03-21T05:30:08.439Z,9.28
2023-03-21T05:35:12.011Z,9.19
2023-03-21T05:37:41.583Z,9.23
2023-03-21T05:40:11.643Z,9.18
2023-03-21T05:42:44.901Z,9.23
2023-03-21T05:45:17.128Z,9.25
2023-03-21T05:47:43.938Z,9.16
2023-03-21T05:50:14.300Z,9.19
2023-03-21T05:52:44.641Z,9.22
2023-03-21T05:55:14.067Z,9.22
2023-03-21T05:57:47.670Z,9.18
2023-03-21T06:00:22.251Z,9.22
2023-03-21T06:03:11.601Z,9.18
2023-03-21T06:05:55.097Z,9.21
2023-03-21T06:08:25.951Z,9.15
2023-03-21T06:10:55.708Z,9.21
2023-03-21T06:13:22.904Z,9.19
2023-03-21T06:15:52.110Z,9.21
2023-03-21T06:18:26.005Z,9.23
2023-03-21T06:21:06.375Z,9.27
2023-03-21T06:23:37.493Z,9.30
2023-03-21T06:26:14.576Z,9.27
2023-03-21T06:28:47.242Z,9.30
2023-03-21T06:31:17.385Z,9.39
2023-03-21T06:33:46.630Z,9.45
2023-03-21T06:36:16.311Z,9.43
2023-03-21T06:38:47.040Z,9.51
2023-03-21T06:41:18.639Z,9.54
2023-03-21T06:43:55.503Z,9.56
2023-03-21T06:46:24.820Z,9.51
2023-03-21T06:48:51.736Z,9.59
2023-03-21T06:51:20.960Z,9.56
2023-03-21T06:54:05.750Z,9.66
2023-03-21T06:56:55.070Z,9.70
2023-03-21T06:59:26.819Z,9.72
2023-03-21T07:02:10.863Z,9.68
2023-03-21T07:04:47.897Z,9.73
2023-03-21T07:07:27.310Z,9.81
2023-03-21T07:10:01.475Z,9.78
2023-03-21T07:12:34.305Z,9.85
2023-03-21T07:15:14.147Z,9.89
2023-03-21T07:17:49.867Z,9.88
2023-03-21T07:20:16.876Z,9.89
2023-03-21T07:22:46.463Z,9.92
2023-03-21T07:25:20.144Z,9.94
2023-03-21T07:27:50.806Z,9.86
2023-03-21T07:30:22.286Z,9.91
2023-03-21T07:32:49.026Z,9.90
2023-03-21T07:35:17.865Z,9.97
2023-03-21T07:37:44.609Z,9.97
2023-03-21T07:40:17.276Z,9.96
2023-03-21T07:42:51.954Z,10.00
2023-03-21T07:45:31.251Z,10.05
2023-03-21T07:48:02.934Z,10.00
2023-03-21T07:50:38.578Z,10.09
2023-03-21T07:53:08.405Z,10.10
2023-03-21T07:55:42.491Z,10.15
2023-03-21T07:58:09.176Z,10.17
2023-03-21T08:00:40.360Z,10.20
2023-03-21T08:03:07.104Z,10.19
2023-03-21T08:05:38.408Z,10.24
2023-03-21T08:08:08.199Z,10.28
2023-03-21T08:10:41.067Z,10.28
2023-03-21T08:13:10.060Z,10.27
2023-03-21T08:15:37.830Z,10.26
2023-03-21T08:18:12.536Z,10.30
2023-03-21T08:20:42.229Z,10.40
2023-03-21T08:23:11.393Z,10.40
2023-03-21T08:25:41.073Z,10.45
2023-03-21T08:28:14.659Z,10.42
2023-03-21T08:30:46.158Z,10.54
2023-03-21T08:33:16.156Z,10.53
2023-03-21T08:35:45.957Z,10.56
2023-03-21T08:38:22.612Z,10.63
2023-03-21T08:40:51.789Z,10.65
2023-03-21T08:43:18.510Z,10.67
2023-03-21T08:45:49.976Z,10.71
2023-03-21T08:48:22.605Z,10.75
2023-03-21T08:50:51.584Z,10.77
2023-03-21T08:53:23.282Z,10.80
2023-03-21T08:55:55.474Z,10.82
2023-03-21T08:58:24.540Z,10.84
2023-03-21T09:00:56.545Z,10.84
2023-03-21T09:03:27.997Z,10.88
2023-03-21T09:06:00.817Z,10.87
2023-03-21T09:08:34.567Z,10.85
2023-03-21T09:11:03.760Z,10.91
2023-03-21T09:13:32.722Z,10.94
2023-03-21T09:16:01.989Z,10.97
2023-03-21T09:18:55.870Z,10.96
2023-03-21T09:21:30.962Z,11.00
2023-03-21T09:24:02.991Z,11.01
2023-03-21T09:26:34.976Z,11.01
2023-03-21T09:29:06.030Z,10.98
2023-03-21T09:31:43.960Z,11.05
2023-03-21T09:34:15.864Z,11.02
2023-03-21T09:36:48.443Z,11.18
2023-03-21T09:39:17.808Z,11.18
2023-03-21T09:42:33.947Z,11.24
2023-03-21T09:45:05.004Z,11.25
2023-03-21T09:47:53.470Z,11.28
2023-03-21T09:50:32.030Z,11.27
2023-03-21T09:53:05.358Z,11.33
2023-03-21T09:55:42.698Z,11.36
2023-03-21T09:58:26.272Z,11.38
2023-03-21T10:01:22.500Z,11.42
2023-03-21T10:03:55.604Z,11.43
2023-03-21T10:06:30.606Z,11.47
2023-03-21T10:09:08.674Z,11.51
2023-03-21T10:11:49.470Z,11.54
2023-03-21T10:15:05.500Z,11.57
2023-03-21T10:17:47.236Z,11.56
2023-03-21T10:20:14.273Z,11.61
2023-03-21T10:22:44.069Z,11.59
2023-03-21T10:25:32.094Z,11.61
2023-03-21T10:28:02.647Z,11.70
2023-03-21T10:30:36.910Z,11.74
2023-03-21T10:33:11.534Z,11.75
2023-03-21T10:35:46.620Z,11.82
2023-03-21T10:38:19.912Z,11.88
2023-03-21T10:40:52.134Z,11.95
2023-03-21T10:43:27.833Z,12.03
2023-03-21T10:45:57.927Z,12.06
2023-03-21T10:48:27.134Z,12.12
2023-03-21T10:50:59.688Z,12.19
2023-03-21T10:53:53.251Z,12.27
2023-03-21T10:56:27.792Z,12.28
2023-03-21T10:59:03.863Z,12.34
2023-03-21T11:01:43.136Z,12.47
2023-03-21T11:04:23.381Z,12.54
2023-03-21T11:07:07.107Z,12.59
2023-03-21T11:10:19.987Z,12.72
2023-03-21T11:12:59.752Z,12.80
2023-03-21T11:15:35.483Z,12.88
2023-03-21T11:18:22.866Z,12.93
2023-03-21T11:20:51.277Z,13.02
2023-03-21T11:23:21.750Z,13.10
2023-03-21T11:25:53.091Z,13.19
2023-03-21T11:28:23.447Z,13.27
2023-03-21T11:31:01.169Z,13.32
2023-03-21T11:33:36.604Z,13.38
2023-03-21T11:36:27.465Z,13.45
2023-03-21T11:39:02.709Z,13.54
2023-03-21T11:41:36.618Z,13.63
2023-03-21T11:44:23.479Z,13.73
2023-03-21T11:46:54.287Z,13.82
2023-03-21T11:49:24.479Z,13.90
2023-03-21T11:52:29.448Z,14.01
2023-03-21T11:55:31.612Z,14.16
2023-03-21T11:58:21.990Z,14.27
2023-03-21T12:00:59.738Z,14.36
2023-03-21T12:04:08.560Z,14.47
2023-03-21T12:06:46.900Z,14.53
2023-03-21T12:09:25.290Z,14.70
2023-03-21T12:12:11.877Z,14.81
2023-03-21T12:15:10.972Z,14.91
2023-03-21T12:17:54.592Z,14.95
2023-03-21T12:20:39.777Z,15.05
2023-03-21T12:23:16.016Z,15.15
2023-03-21T12:25:56.796Z,15.30
2023-03-21T12:28:56.598Z,15.38
2023-03-21T12:31:56.526Z,15.46
2023-03-21T12:34:50.992Z,15.56
2023-03-21T12:37:42.466Z,15.64
2023-03-21T12:40:40.673Z,15.69
2023-03-21T12:43:25.002Z,15.79
2023-03-21T12:46:33.871Z,15.93
2023-03-21T12:49:10.504Z,16.01
2023-03-21T12:51:47.563Z,16.10
2023-03-21T12:54:39.244Z,16.10
2023-03-21T12:57:18.039Z,16.16
2023-03-21T12:59:58.305Z,16.19
2023-03-21T13:03:03.757Z,16.20
2023-03-21T13:05:41.172Z,16.13
2023-03-21T13:08:21.078Z,16.24
2023-03-21T13:10:48.013Z,16.34
2023-03-21T13:13:45.027Z,16.41
2023-03-21T13:16:22.997Z,16.43
2023-03-21T13:19:14.012Z,16.46
2023-03-21T13:21:55.852Z,16.46
2023-03-21T13:24:43.956Z,16.38
2023-03-21T13:27:33.994Z,16.44
2023-03-21T13:30:20.667Z,16.38
2023-03-21T13:32:51.715Z,16.33
2023-03-21T13:35:38.193Z,16.34
2023-03-21T13:38:16.602Z,16.33
2023-03-21T13:40:47.763Z,16.31
2023-03-21T13:43:43.788Z,16.32
2023-03-21T13:46:52.279Z,16.31
2023-03-21T13:49:34.506Z,16.31
2023-03-21T13:52:27.878Z,16.31
2023-03-21T13:54:58.872Z,16.31
2023-03-21T13:57:30.550Z,16.30
2023-03-21T14:00:19.050Z,16.30
2023-03-21T14:03:08.332Z,16.30
2023-03-21T14:05:38.992Z,16.30
2023-03-21T14:08:15.622Z,16.32
2023-03-21T14:10:58.008Z,16.31
2023-03-21T14:13:26.706Z,16.29
2023-03-21T14:16:12.871Z,16.20
2023-03-21T14:18:54.181Z,16.25
2023-03-21T14:21:29.727Z,16.21
2023-03-21T14:24:13.729Z,16.23
2023-03-21T14:26:54.369Z,16.23
2023-03-21T14:29:31.633Z,16.22
2023-03-21T14:32:04.433Z,16.25
2023-03-21T14:34:35.820Z,16.29
2023-03-21T14:37:15.692Z,16.23
2023-03-21T14:39:42.456Z,16.30
2023-03-21T14:42:17.590Z,16.32
2023-03-21T14:45:00.511Z,16.30
2023-03-21T14:47:32.181Z,16.28
2023-03-21T14:50:03.639Z,16.22
2023-03-21T14:52:34.264Z,16.22
2023-03-21T14:55:02.594Z,16.28
2023-03-21T14:57:34.043Z,16.28
2023-03-21T15:00:17.250Z,16.25
2023-03-21T15:02:46.339Z,16.22
2023-03-21T15:05:39.641Z,16.21
2023-03-21T15:08:14.883Z,16.16
2023-03-21T15:11:08.103Z,16.15
2023-03-21T15:13:54.998Z,16.13
2023-03-21T15:16:24.868Z,16.09
2023-03-21T15:18:57.031Z,16.02
2023-03-21T15:21:30.335Z,16.05
2023-03-21T15:24:13.701Z,16.00
2023-03-21T15:26:45.063Z,16.01
2023-03-21T15:29:16.333Z,15.92
2023-03-21T15:31:47.673Z,15.96
2023-03-21T15:34:30.791Z,15.89
2023-03-21T15:37:06.379Z,15.88
2023-03-21T15:39:36.636Z,15.86
2023-03-21T15:42:26.251Z,15.83
2023-03-21T15:44:56.521Z,15.72
2023-03-21T15:47:51.947Z,15.73
2023-03-21T15:50:24.390Z,15.71
2023-03-21T15:52:54.831Z,15.67
2023-03-21T15:55:28.352Z,15.66
2023-03-21T15:58:04.475Z,15.63
2023-03-21T16:00:44.038Z,15.65
2023-03-21T16:03:19.289Z,15.62
2023-03-21T16:06:14.392Z,15.55
2023-03-21T16:08:47.406Z,15.53
2023-03-21T16:11:18.585Z,15.51
2023-03-21T16:13:51.734Z,15.48
2023-03-21T16:16:24.819Z,15.48
2023-03-21T16:18:55.278Z,15.46
2023-03-21T16:21:30.717Z,15.44
2023-03-21T16:24:02.297Z,15.37
2023-03-21T16:26:32.227Z,15.40
2023-03-21T16:29:07.214Z,15.39
2023-03-21T16:31:37.286Z,15.31
2023-03-21T16:34:11.010Z,15.35
2023-03-21T16:36:44.086Z,15.32
2023-03-21T16:39:29.083Z,15.31
2023-03-21T16:42:03.126Z,15.27
2023-03-21T16:44:35.820Z,15.16
2023-03-21T16:47:02.613Z,15.18
2023-03-21T16:49:33.815Z,15.17
2023-03-21T16:52:01.481Z,15.18
2023-03-21T16:54:30.541Z,15.12
2023-03-21T16:57:04.610Z,15.15
2023-03-21T16:59:39.207Z,15.14
2023-03-21T17:02:16.453Z,15.12
2023-03-21T17:04:46.367Z,15.12
2023-03-21T17:07:15.902Z,15.10
2023-03-21T17:09:46.906Z,15.04
2023-03-21T17:12:17.864Z,15.00
2023-03-21T17:14:52.469Z,15.04
2023-03-21T17:17:21.790Z,15.01
2023-03-21T17:19:53.055Z,15.01
2023-03-21T17:22:24.594Z,14.95
2023-03-21T17:24:51.252Z,14.94
2023-03-21T17:27:18.476Z,14.91
2023-03-21T17:29:49.726Z,14.84
2023-03-21T17:32:21.360Z,14.90
2023-03-21T17:34:53.352Z,14.88
2023-03-21T17:37:26.178Z,14.83
2023-03-21T17:39:53.331Z,14.85
2023-03-21T17:42:25.334Z,14.78
2023-03-21T17:44:54.318Z,14.81
2023-03-21T17:47:25.665Z,14.79
2023-03-21T17:49:56.819Z,14.75
2023-03-21T17:52:30.559Z,14.77
2023-03-21T17:54:59.540Z,14.73
2023-03-21T17:57:28.335Z,14.72
2023-03-21T18:00:00.055Z,14.62
2023-03-21T18:02:31.970Z,14.57
2023-03-21T18:05:03.526Z,14.61
2023-03-21T18:08:05.912Z,14.58
2023-03-21T18:10:28.519Z,14.52
2023-03-21T18:12:58.440Z,14.42
2023-03-21T18:15:30.042Z,14.42
2023-03-21T18:17:59.785Z,14.42
2023-03-21T18:20:49.962Z,14.33
2023-03-21T18:23:15.542Z,14.28
2023-03-21T18:25:42.334Z,14.30
2023-03-21T18:28:12.763Z,14.29
2023-03-21T18:31:06.932Z,14.21
2023-03-21T18:33:31.106Z,14.23
2023-03-21T18:35:59.317Z,14.15
2023-03-21T18:38:27.862Z,14.16
2023-03-21T18:40:57.919Z,14.11
2023-03-21T18:46:16.476Z,13.96
2023-03-21T18:48:43.523Z,14.01
2023-03-21T18:51:12.726Z,13.88
2023-03-21T18:53:39.707Z,13.94
2023-03-21T18:56:10.669Z,13.90
2023-03-21T18:58:38.702Z,13.94
2023-03-21T19:01:05.675Z,13.93
2023-03-21T19:03:37.249Z,13.85
2023-03-21T19:06:05.557Z,13.81
2023-03-21T19:08:38.726Z,13.89
2023-03-21T19:11:09.250Z,13.86
2023-03-21T19:13:41.026Z,13.79
2023-03-21T19:16:15.117Z,13.82
2023-03-21T19:18:54.880Z,13.75
2023-03-21T19:21:28.071Z,13.76
2023-03-21T19:26:46.438Z,13.71
2023-03-21T19:29:14.984Z,13.70
2023-03-21T19:31:45.246Z,13.64
2023-03-21T19:34:14.359Z,13.54
2023-03-21T19:36:45.863Z,13.56
2023-03-21T19:39:19.640Z,13.48
2023-03-21T19:41:48.804Z,13.53
2023-03-21T19:44:22.055Z,13.45
2023-03-21T19:46:51.138Z,13.44
2023-03-21T19:49:31.713Z,13.45
2023-03-21T19:52:13.529Z,13.44
2023-03-21T19:54:40.631Z,13.45
2023-03-21T19:57:09.740Z,13.36
2023-03-21T19:59:36.642Z,13.40
2023-03-21T20:02:25.636Z,13.38
2023-03-21T20:04:57.967Z,13.31
2023-03-21T20:07:24.868Z,13.25
2023-03-21T20:09:54.236Z,13.31
2023-03-21T20:12:23.182Z,13.20
2023-03-21T20:14:58.033Z,13.17
2023-03-21T20:17:30.944Z,13.23
2023-03-21T20:20:00.664Z,13.22
2023-03-21T20:22:58.870Z,13.21
2023-03-21T20:25:17.467Z,13.19
2023-03-21T20:27:44.948Z,13.01
2023-03-21T20:30:15.017Z,13.13
2023-03-21T20:32:44.300Z,13.10
2023-03-21T20:35:21.264Z,13.06
2023-03-21T20:37:59.888Z,13.00
2023-03-21T20:40:26.737Z,12.97
2023-03-21T20:42:56.455Z,12.95
2023-03-21T20:45:23.185Z,12.89
2023-03-21T20:47:57.062Z,12.85
2023-03-21T20:50:26.065Z,12.87
2023-03-21T20:53:06.375Z,12.81
2023-03-21T20:55:34.290Z,12.79
2023-03-21T20:58:02.224Z,12.78
2023-03-21T21:00:29.608Z,12.80
2023-03-21T21:03:01.934Z,12.71
2023-03-21T21:05:34.897Z,12.68
2023-03-21T21:08:04.522Z,12.70
2023-03-21T21:10:34.386Z,12.70
2023-03-21T21:13:01.508Z,12.68
2023-03-21T21:15:28.336Z,12.63
2023-03-21T21:18:06.596Z,12.60
2023-03-21T21:20:35.386Z,12.57
2023-03-21T21:23:02.257Z,12.51
2023-03-21T21:25:32.871Z,12.49
2023-03-21T21:28:02.430Z,12.46
2023-03-21T21:30:30.288Z,12.41
2023-03-21T21:32:59.733Z,12.32
2023-03-21T21:35:27.021Z,12.31
2023-03-21T21:37:53.720Z,12.22
2023-03-21T21:40:23.554Z,12.22
2023-03-21T21:42:50.956Z,12.21
2023-03-21T21:45:22.389Z,12.17
2023-03-21T21:47:51.594Z,12.18
2023-03-21T21:50:22.560Z,12.18
2023-03-21T21:52:54.385Z,12.02
2023-03-21T21:55:23.492Z,12.03
2023-03-21T21:57:50.757Z,11.86
2023-03-21T22:00:22.539Z,11.86
2023-03-21T22:02:49.407Z,11.83
2023-03-21T22:05:16.523Z,11.79
2023-03-21T22:07:45.485Z,11.75
2023-03-21T22:10:15.560Z,11.81
2023-03-21T22:12:44.889Z,11.75
2023-03-21T22:15:12.489Z,11.72
2023-03-21T22:17:41.853Z,11.64
2023-03-21T22:20:15.114Z,11.66
2023-03-21T22:22:42.444Z,11.61
2023-03-21T22:25:12.032Z,11.60
2023-03-21T22:27:41.209Z,11.55
2023-03-21T22:30:13.849Z,11.48
2023-03-21T22:32:43.860Z,11.48
2023-03-21T22:35:11.628Z,11.46
2023-03-21T22:37:42.541Z,11.44
2023-03-21T22:40:13.216Z,11.34
2023-03-21T22:42:41.294Z,11.25
2023-03-21T22:45:13.415Z,11.30
2023-03-21T22:47:40.793Z,11.28
2023-03-21T22:50:13.245Z,11.23
2023-03-21T22:52:39.912Z,11.23
2023-03-21T22:55:10.109Z,11.18
2023-03-21T22:57:39.156Z,11.18
2023-03-21T23:00:13.291Z,11.16
2023-03-21T23:02:42.525Z,11.14
2023-03-21T23:05:10.136Z,11.13
2023-03-21T23:07:40.728Z,11.07
2023-03-21T23:10:08.967Z,10.93
2023-03-21T23:12:39.081Z,10.96
2023-03-21T23:15:07.825Z,10.98
2023-03-21T23:17:35.661Z,10.89
2023-03-21T23:20:04.655Z,10.90
2023-03-21T23:22:32.930Z,10.86
2023-03-21T23:25:00.139Z,10.75
2023-03-21T23:27:29.550Z,10.75
2023-03-21T23:29:58.587Z,10.73
2023-03-21T23:32:27.669Z,10.56
2023-03-21T23:35:01.642Z,10.65
2023-03-21T23:37:30.131Z,10.57
2023-03-21T23:39:59.841Z,10.53
2023-03-21T23:42:30.901Z,10.54
2023-03-21T23:44:57.852Z,10.46
2023-03-21T23:47:24.544Z,10.41
2023-03-21T23:49:53.470Z,10.42
2023-03-21T23:52:20.380Z,10.38
2023-03-21T23:54:47.083Z,10.35
2023-03-21T23:57:17.245Z,10.30
2023-03-21T23:59:46.877Z,10.26
